createdAt,value
2022-10-04T00:01:49.528Z,10.70
2022-10-04T00:04:19.681Z,12.40
2022-10-04T00:07:11.857Z,12.30
2022-10-04T00:09:54.562Z,13.70
2022-10-04T00:12:31.307Z,14.80
2022-10-04T00:15:05.354Z,12.20
2022-10-04T00:17:36.100Z,10.10
2022-10-04T00:20:44.525Z,11.20
2022-10-04T00:23:25.188Z,13.60
2022-10-04T00:25:54.222Z,12.30
2022-10-04T00:28:21.998Z,13.50
2022-10-04T00:31:12.890Z,12.10
2022-10-04T00:34:03.339Z,13.70
2022-10-04T00:36:38.503Z,10.10
2022-10-04T00:39:09.615Z,8.30
2022-10-04T00:41:49.661Z,12.80
2022-10-04T00:44:24.388Z,11.90
2022-10-04T00:46:55.159Z,13.40
2022-10-04T00:49:30.058Z,11.70
2022-10-04T00:52:08.176Z,9.60
2022-10-04T00:54:42.302Z,10.30
2022-10-04T00:57:21.050Z,11.40
2022-10-04T00:59:53.397Z,12.10
2022-10-04T01:02:46.116Z,11.50
2022-10-04T01:05:14.161Z,13.50
2022-10-04T01:07:46.700Z,11.20
2022-10-04T01:10:28.480Z,11.90
2022-10-04T01:13:10.157Z,12.20
2022-10-04T01:15:49.469Z,9.90
2022-10-04T01:18:20.070Z,12.60
2022-10-04T01:20:59.223Z,12.30
2022-10-04T01:23:49.506Z,8.40
2022-10-04T01:26:29.748Z,12.80
2022-10-04T01:29:00.742Z,8.10
2022-10-04T01:31:31.678Z,11.10
2022-10-04T01:34:01.237Z,11.00
2022-10-04T01:36:29.653Z,8.60
2022-10-04T01:38:58.059Z,10.30
2022-10-04T01:41:39.004Z,8.50
2022-10-04T01:44:11.256Z,8.40
2022-10-04T01:46:41.277Z,8.30
2022-10-04T01:49:20.619Z,7.00
2022-10-04T01:52:05.733Z,6.90
2022-10-04T01:54:42.888Z,6.20
2022-10-04T01:57:26.922Z,7.60
2022-10-04T02:00:04.552Z,8.00
2022-10-04T02:03:10.122Z,10.20
2022-10-04T02:05:49.896Z,5.70
2022-10-04T02:08:25.411Z,7.50
2022-10-04T02:10:55.207Z,8.40
2022-10-04T02:13:27.863Z,8.00
2022-10-04T02:15:58.438Z,5.60
2022-10-04T02:18:27.755Z,4.60
2022-10-04T02:20:56.857Z,5.70
2022-10-04T02:23:26.293Z,6.70
2022-10-04T02:25:54.704Z,5.50
2022-10-04T02:28:22.623Z,7.10
2022-10-04T02:31:12.508Z,6.50
2022-10-04T02:33:47.269Z,7.30
2022-10-04T02:36:17.639Z,5.90
2022-10-04T02:39:02.746Z,5.50
2022-10-04T02:41:54.771Z,4.50
2022-10-04T02:44:36.736Z,4.80
2022-10-04T02:47:12.808Z,5.70
2022-10-04T02:49:54.830Z,7.10
2022-10-04T02:52:25.848Z,7.10
2022-10-04T02:55:04.313Z,6.10
2022-10-04T02:57:34.712Z,5.90
2022-10-04T03:00:17.151Z,4.20
2022-10-04T03:03:19.114Z,5.60
2022-10-04T03:06:13.059Z,6.70
2022-10-04T03:08:59.195Z,5.90
2022-10-04T03:11:46.814Z,6.50
2022-10-04T03:14:23.972Z,10.10
2022-10-04T03:16:57.489Z,8.80
2022-10-04T03:19:27.745Z,10.90
2022-10-04T03:22:08.133Z,8.50
2022-10-04T03:25:06.030Z,8.30
2022-10-04T03:27:36.356Z,8.00
2022-10-04T03:30:05.118Z,9.50
2022-10-04T03:32:33.499Z,8.60
2022-10-04T03:35:05.700Z,13.90
2022-10-04T03:37:38.072Z,9.10
2022-10-04T03:40:10.134Z,9.80
2022-10-04T03:42:47.859Z,11.50
2022-10-04T03:45:18.958Z,10.10
2022-10-04T03:47:50.753Z,15.50
2022-10-04T03:50:26.647Z,9.80
2022-10-04T03:52:58.548Z,10.10
2022-10-04T03:55:35.081Z,12.70
2022-10-04T03:58:03.511Z,11.10
2022-10-04T04:00:31.795Z,10.10
2022-10-04T04:03:05.288Z,12.70
2022-10-04T04:05:44.809Z,9.50
2022-10-04T04:08:24.634Z,12.20
2022-10-04T04:10:55.810Z,13.20
2022-10-04T04:13:25.716Z,9.90
2022-10-04T04:15:57.649Z,11.90
2022-10-04T04:18:29.851Z,13.20
2022-10-04T04:21:01.726Z,9.20
2022-10-04T04:23:36.635Z,12.70
2022-10-04T04:26:41.115Z,9.70
2022-10-04T04:29:26.330Z,11.30
2022-10-04T04:32:12.187Z,6.30
2022-10-04T04:34:57.293Z,11.30
2022-10-04T04:37:25.471Z,9.50
2022-10-04T04:39:55.441Z,10.10
2022-10-04T04:42:35.234Z,10.60
2022-10-04T04:45:15.842Z,10.40
2022-10-04T04:47:47.219Z,8.80
2022-10-04T04:50:18.631Z,8.60
2022-10-04T04:53:00.326Z,9.30
2022-10-04T04:55:50.036Z,9.00
2022-10-04T04:58:35.568Z,9.20
2022-10-04T05:01:08.165Z,9.00
2022-10-04T05:03:36.148Z,8.70
2022-10-04T05:06:05.145Z,8.70
2022-10-04T05:08:40.966Z,6.40
2022-10-04T05:11:09.724Z,9.70
2022-10-04T05:13:40.749Z,9.60
2022-10-04T05:16:21.633Z,7.90
2022-10-04T05:19:03.307Z,9.10
2022-10-04T05:21:33.404Z,10.60
2022-10-04T05:24:14.294Z,10.40
2022-10-04T05:26:43.605Z,7.00
2022-10-04T05:29:18.341Z,8.10
2022-10-04T05:32:21.433Z,9.20
2022-10-04T05:34:51.345Z,8.70
2022-10-04T05:37:42.883Z,13.50
2022-10-04T05:40:24.909Z,10.20
2022-10-04T05:42:55.472Z,8.00
2022-10-04T05:45:27.586Z,7.60
2022-10-04T05:48:01.684Z,6.70
2022-10-04T05:50:43.306Z,7.80
2022-10-04T05:53:34.560Z,10.40
2022-10-04T05:56:28.923Z,8.20
2022-10-04T05:59:15.335Z,8.60
2022-10-04T06:01:57.198Z,7.80
2022-10-04T06:04:40.397Z,7.80
2022-10-04T06:07:35.315Z,11.50
2022-10-04T06:10:30.881Z,6.60
2022-10-04T06:13:20.498Z,9.80
2022-10-04T06:16:07.238Z,7.30
2022-10-04T06:18:56.987Z,12.20
2022-10-04T06:21:27.598Z,9.10
2022-10-04T06:24:14.518Z,6.90
2022-10-04T06:26:49.946Z,8.50
2022-10-04T06:29:23.143Z,9.40
2022-10-04T06:32:28.910Z,10.00
2022-10-04T06:35:11.424Z,9.80
2022-10-04T06:38:07.465Z,12.80
2022-10-04T06:40:44.345Z,11.00
2022-10-04T06:43:17.059Z,8.80
2022-10-04T06:46:09.562Z,8.20
2022-10-04T06:48:59.458Z,10.40
2022-10-04T06:51:55.739Z,7.00
2022-10-04T06:54:53.813Z,11.10
2022-10-04T06:57:31.821Z,10.60
2022-10-04T07:00:22.987Z,8.50
2022-10-04T07:03:14.795Z,7.80
2022-10-04T07:05:46.186Z,7.20
2022-10-04T07:08:37.026Z,7.00
2022-10-04T07:11:12.502Z,10.80
2022-10-04T07:13:51.202Z,7.70
2022-10-04T07:16:29.120Z,10.60
2022-10-04T07:19:13.268Z,6.40
2022-10-04T07:21:56.653Z,8.60
2022-10-04T07:24:42.015Z,6.60
2022-10-04T07:27:16.570Z,6.60
2022-10-04T07:29:46.712Z,9.00
2022-10-04T07:32:24.037Z,6.80
2022-10-04T07:34:58.399Z,7.90
2022-10-04T07:37:31.200Z,10.00
2022-10-04T07:40:02.196Z,7.30
2022-10-04T07:42:38.496Z,12.00
2022-10-04T07:45:20.893Z,8.30
2022-10-04T07:47:49.545Z,7.20
2022-10-04T07:50:35.276Z,7.70
2022-10-04T07:53:37.479Z,7.40
2022-10-04T07:56:15.451Z,5.70
2022-10-04T07:59:23.023Z,6.10
2022-10-04T08:02:16.093Z,7.10
2022-10-04T08:05:17.414Z,7.20
2022-10-04T08:08:27.790Z,6.10
2022-10-04T08:11:10.773Z,6.70
2022-10-04T08:13:47.547Z,6.50
2022-10-04T08:16:38.401Z,7.20
2022-10-04T08:19:51.356Z,5.70
2022-10-04T08:22:55.874Z,5.40
2022-10-04T08:25:36.269Z,5.70
2022-10-04T08:28:42.050Z,6.30
2022-10-04T08:31:40.846Z,6.00
2022-10-04T08:34:43.229Z,6.30
2022-10-04T08:37:26.397Z,6.00
2022-10-04T08:40:33.556Z,5.20
2022-10-04T08:43:20.374Z,6.40
2022-10-04T08:46:23.881Z,6.00
2022-10-04T08:49:03.566Z,6.50
2022-10-04T08:51:59.005Z,5.50
2022-10-04T08:54:35.603Z,5.70
2022-10-04T08:57:16.089Z,4.00
2022-10-04T09:00:05.672Z,5.10
2022-10-04T09:02:42.714Z,3.60
2022-10-04T09:05:37.366Z,3.70
2022-10-04T09:08:42.656Z,4.10
2022-10-04T09:11:31.266Z,3.10
2022-10-04T09:14:04.876Z,5.40
2022-10-04T09:17:01.851Z,5.40
2022-10-04T09:19:51.247Z,3.40
2022-10-04T09:22:46.937Z,6.50
2022-10-04T09:25:32.761Z,4.90
2022-10-04T09:28:17.130Z,3.20
2022-10-04T09:31:06.920Z,3.50
2022-10-04T09:33:53.988Z,3.10
2022-10-04T09:37:00.344Z,3.70
2022-10-04T09:39:59.261Z,5.20
2022-10-04T09:42:59.458Z,4.50
2022-10-04T09:45:55.137Z,2.20
2022-10-04T09:48:32.873Z,4.00
2022-10-04T09:51:32.497Z,3.80
2022-10-04T09:54:45.098Z,3.20
2022-10-04T09:57:41.700Z,2.80
2022-10-04T10:00:22.454Z,4.40
2022-10-04T10:03:12.231Z,3.20
2022-10-04T10:06:13.388Z,3.60
2022-10-04T10:09:02.885Z,4.90
2022-10-04T10:12:12.995Z,5.20
2022-10-04T10:15:01.305Z,3.30
2022-10-04T10:17:45.443Z,4.40
2022-10-04T10:20:41.209Z,3.80
2022-10-04T10:23:30.519Z,4.00
2022-10-04T10:26:27.793Z,2.50
2022-10-04T10:29:29.945Z,2.40
2022-10-04T10:32:24.067Z,4.40
2022-10-04T10:35:19.910Z,6.70
2022-10-04T10:38:15.747Z,4.40
2022-10-04T10:41:11.521Z,3.70
2022-10-04T10:43:57.905Z,4.50
2022-10-04T10:46:33.578Z,4.90
2022-10-04T10:49:22.404Z,3.60
2022-10-04T10:52:10.920Z,5.70
2022-10-04T10:54:58.040Z,3.50
2022-10-04T11:56:45.022Z,5.20
2022-10-04T11:59:42.531Z,6.00
2022-10-04T12:02:23.547Z,4.70
2022-10-04T12:05:04.635Z,7.10
2022-10-04T12:07:57.428Z,5.80
2022-10-04T12:10:29.030Z,6.40
2022-10-04T12:13:05.290Z,6.10
2022-10-04T12:15:38.773Z,7.90
2022-10-04T12:18:38.401Z,7.20
2022-10-04T12:21:29.064Z,4.80
2022-10-04T12:24:19.775Z,4.60
2022-10-04T12:27:15.738Z,6.10
2022-10-04T12:29:56.069Z,4.70
2022-10-04T12:32:30.118Z,4.20
2022-10-04T12:35:12.702Z,5.30
2022-10-04T12:38:08.336Z,5.00
2022-10-04T12:41:11.736Z,6.90
2022-10-04T12:43:45.888Z,4.20
2022-10-04T12:46:36.498Z,7.70
2022-10-04T12:49:32.422Z,5.70
2022-10-04T12:52:20.977Z,5.60
2022-10-04T12:55:05.193Z,6.10
2022-10-04T12:57:41.056Z,8.30
2022-10-04T13:00:23.109Z,7.00
2022-10-04T13:03:27.534Z,5.90
2022-10-04T13:05:55.558Z,7.80
2022-10-04T13:08:37.947Z,4.30
2022-10-04T13:11:31.384Z,7.30
2022-10-04T13:14:24.075Z,7.60
2022-10-04T13:20:18.553Z,6.30
2022-10-04T13:23:01.806Z,5.50
2022-10-04T13:26:04.172Z,5.40
2022-10-04T13:28:57.384Z,5.40
2022-10-04T13:31:46.584Z,4.80
2022-10-04T13:34:55.558Z,6.40
2022-10-04T13:37:49.970Z,5.00
2022-10-04T13:40:36.719Z,5.40
2022-10-04T13:43:23.769Z,5.00
2022-10-04T13:46:21.926Z,5.40
2022-10-04T13:48:52.593Z,5.00
2022-10-04T13:51:47.103Z,5.00
2022-10-04T13:54:59.879Z,4.80
2022-10-04T13:57:51.784Z,5.00
2022-10-04T14:01:00.766Z,4.30
2022-10-04T14:03:32.058Z,4.40
2022-10-04T14:06:39.011Z,10.00
2022-10-04T14:09:28.419Z,5.00
2022-10-04T14:12:08.854Z,7.70
2022-10-04T14:14:40.048Z,7.00
2022-10-04T14:17:40.743Z,6.90
2022-10-04T14:20:42.075Z,5.20
2022-10-04T14:23:12.754Z,3.90
2022-10-04T14:26:02.819Z,4.80
2022-10-04T14:29:08.324Z,9.90
2022-10-04T14:32:13.262Z,6.00
2022-10-04T14:34:47.733Z,6.30
2022-10-04T14:37:49.736Z,6.20
2022-10-04T14:40:32.504Z,7.90
2022-10-04T14:43:31.454Z,6.50
2022-10-04T14:46:40.844Z,7.80
2022-10-04T14:49:41.788Z,6.70
2022-10-04T14:52:14.473Z,5.80
2022-10-04T14:54:56.392Z,4.90
2022-10-04T14:57:52.041Z,5.30
2022-10-04T15:00:23.887Z,6.30
2022-10-04T15:03:04.435Z,5.70
2022-10-04T15:05:44.357Z,5.60
2022-10-04T15:08:54.482Z,7.30
2022-10-04T15:11:44.420Z,6.60
2022-10-04T15:14:24.446Z,6.20
2022-10-04T15:17:26.209Z,6.30
2022-10-04T15:20:01.343Z,5.80
2022-10-04T15:22:49.894Z,6.20
2022-10-04T15:25:37.952Z,6.60
2022-10-04T15:28:33.002Z,9.90
2022-10-04T15:31:20.687Z,8.40
2022-10-04T15:34:33.546Z,7.10
2022-10-04T15:37:13.402Z,6.40
2022-10-04T15:40:03.785Z,7.50
2022-10-04T15:42:38.353Z,7.30
2022-10-04T15:45:18.120Z,11.80
2022-10-04T15:48:05.161Z,12.00
2022-10-04T15:50:41.762Z,10.70
2022-10-04T15:53:33.134Z,6.80
2022-10-04T15:56:33.234Z,7.20
2022-10-04T15:59:28.413Z,8.10
2022-10-04T16:02:10.414Z,8.10
2022-10-04T16:05:04.051Z,7.70
2022-10-04T16:08:07.209Z,10.50
2022-10-04T16:11:08.320Z,7.50
2022-10-04T16:13:56.961Z,7.50
2022-10-04T16:16:41.567Z,10.10
2022-10-04T16:19:30.405Z,9.40
2022-10-04T16:22:15.226Z,8.40
2022-10-04T16:25:21.557Z,9.20
2022-10-04T16:27:59.627Z,7.40
2022-10-04T16:30:50.687Z,11.50
2022-10-04T16:33:38.441Z,6.80
2022-10-04T16:36:10.201Z,10.90
2022-10-04T16:39:08.465Z,9.70
2022-10-04T16:41:44.353Z,9.80
2022-10-04T16:44:34.486Z,7.30
2022-10-04T16:47:32.504Z,8.40
2022-10-04T16:50:05.373Z,10.30
2022-10-04T16:53:01.228Z,8.10
2022-10-04T16:56:13.184Z,13.20
2022-10-04T16:58:44.071Z,9.10
2022-10-04T17:01:24.112Z,8.20
2022-10-04T17:04:18.909Z,11.00
2022-10-04T17:07:05.809Z,11.30
2022-10-04T17:09:48.236Z,11.50
2022-10-04T17:13:00.372Z,16.30
2022-10-04T17:15:28.646Z,11.90
2022-10-04T17:18:06.331Z,12.40
2022-10-04T17:20:49.053Z,12.30
2022-10-04T17:23:24.348Z,11.40
2022-10-04T17:26:13.482Z,11.30
2022-10-04T17:28:47.704Z,11.80
2022-10-04T17:31:26.076Z,12.20
2022-10-04T17:34:20.871Z,11.60
2022-10-04T17:36:56.368Z,13.50
2022-10-04T17:39:27.334Z,13.20
2022-10-04T17:42:24.743Z,10.70
2022-10-04T17:45:36.436Z,11.60
2022-10-04T17:48:42.223Z,11.80
2022-10-04T17:51:47.513Z,13.10
2022-10-04T17:54:41.479Z,13.20
2022-10-04T17:57:12.463Z,16.20
2022-10-04T17:59:53.053Z,13.00
2022-10-04T18:03:03.261Z,17.40
2022-10-04T18:05:41.165Z,14.00
2022-10-04T18:08:37.252Z,14.60
2022-10-04T18:11:16.608Z,13.00
2022-10-04T18:14:04.821Z,16.60
2022-10-04T18:16:56.585Z,15.20
2022-10-04T18:19:43.143Z,14.70
2022-10-04T18:22:13.125Z,16.20
2022-10-04T18:24:44.327Z,14.50
2022-10-04T18:27:23.379Z,15.30
2022-10-04T18:30:03.078Z,12.10
2022-10-04T18:32:43.098Z,13.10
2022-10-04T18:35:54.394Z,13.70
2022-10-04T18:38:30.457Z,12.40
2022-10-04T18:41:02.956Z,11.90
2022-10-04T18:44:15.290Z,12.70
2022-10-04T18:46:50.440Z,13.20
2022-10-04T18:49:27.291Z,17.30
2022-10-04T18:52:25.804Z,21.50
2022-10-04T18:55:06.034Z,18.20
2022-10-04T18:57:59.162Z,17.80
2022-10-04T19:00:57.180Z,13.10
2022-10-04T19:04:00.424Z,14.80
2022-10-04T19:06:34.072Z,14.10
2022-10-04T19:09:34.100Z,14.90
2022-10-04T19:12:16.390Z,13.70
2022-10-04T19:15:07.892Z,13.60
2022-10-04T19:17:55.669Z,13.20
2022-10-04T19:20:32.794Z,12.50
2022-10-04T19:23:25.863Z,11.90
2022-10-04T19:26:30.394Z,16.50
2022-10-04T19:29:06.032Z,13.10
2022-10-04T19:32:04.137Z,12.00
2022-10-04T19:34:54.036Z,14.10
2022-10-04T19:37:34.308Z,14.70
2022-10-04T19:40:25.558Z,12.70
2022-10-04T19:43:16.068Z,12.70
2022-10-04T19:46:14.080Z,13.70
2022-10-04T19:48:52.701Z,13.10
2022-10-04T19:51:39.844Z,14.60
2022-10-04T19:54:15.930Z,11.80
2022-10-04T19:56:47.962Z,14.50
2022-10-04T19:59:19.140Z,14.10
2022-10-04T20:01:47.597Z,14.70
2022-10-04T20:04:35.817Z,16.10
2022-10-04T20:07:27.676Z,14.00
2022-10-04T20:10:15.738Z,13.90
2022-10-04T20:13:17.468Z,13.50
2022-10-04T20:16:01.358Z,13.10
2022-10-04T20:18:32.946Z,16.10
2022-10-04T20:21:01.498Z,12.40
2022-10-04T20:23:38.790Z,16.90
2022-10-04T20:26:09.371Z,12.90
2022-10-04T20:28:42.346Z,16.60
2022-10-04T20:31:26.939Z,15.80
2022-10-04T20:33:55.982Z,13.80
2022-10-04T20:36:24.007Z,13.10
2022-10-04T20:39:02.220Z,16.30
2022-10-04T20:41:50.263Z,15.60
2022-10-04T20:44:54.334Z,12.50
2022-10-04T20:47:44.285Z,13.10
2022-10-04T20:50:35.716Z,15.80
2022-10-04T20:53:12.388Z,13.10
2022-10-04T20:55:40.649Z,12.60
2022-10-04T20:58:23.772Z,14.50
2022-10-04T21:00:57.843Z,13.80
2022-10-04T21:03:25.906Z,14.20
2022-10-04T21:06:03.753Z,14.30
2022-10-04T21:08:32.535Z,11.50
2022-10-04T21:11:19.471Z,16.60
2022-10-04T21:13:53.612Z,12.30
2022-10-04T21:16:39.830Z,13.70
2022-10-04T21:19:32.886Z,16.50
2022-10-04T21:22:03.411Z,12.80
2022-10-04T21:24:37.378Z,12.50
2022-10-04T21:27:09.121Z,12.50
2022-10-04T21:29:38.979Z,16.00
2022-10-04T21:32:06.962Z,16.20
2022-10-04T21:34:52.504Z,16.90
2022-10-04T21:37:21.934Z,15.10
2022-10-04T21:39:50.086Z,18.20
2022-10-04T21:42:18.336Z,19.70
2022-10-04T21:44:46.405Z,17.00
2022-10-04T21:47:14.615Z,16.60
2022-10-04T21:49:43.031Z,15.10
2022-10-04T21:52:11.631Z,13.70
2022-10-04T21:54:39.462Z,17.00
2022-10-04T21:57:07.322Z,16.40
2022-10-04T21:59:35.443Z,12.00
2022-10-04T22:02:03.311Z,14.50
2022-10-04T22:04:31.415Z,11.80
2022-10-04T22:06:59.843Z,13.80
2022-10-04T22:09:28.067Z,14.30
2022-10-04T22:11:56.201Z,15.50
2022-10-04T22:14:24.227Z,13.60
2022-10-04T22:16:52.422Z,12.60
2022-10-04T22:19:20.288Z,13.10
2022-10-04T22:21:48.360Z,13.00
2022-10-04T22:24:21.006Z,11.50
2022-10-04T22:26:49.529Z,14.60
2022-10-04T22:29:19.144Z,13.60
2022-10-04T22:31:51.046Z,13.90
2022-10-04T22:34:22.977Z,17.60
2022-10-04T22:36:53.526Z,11.20
2022-10-04T22:39:22.199Z,15.40
2022-10-04T22:41:56.114Z,14.70
2022-10-04T22:44:29.562Z,12.50
2022-10-04T22:47:00.425Z,23.70
2022-10-04T22:49:32.825Z,14.10
2022-10-04T22:52:04.288Z,15.00
2022-10-04T22:54:34.992Z,21.40
2022-10-04T22:57:02.834Z,12.60
2022-10-04T22:59:37.910Z,18.20
2022-10-04T23:02:12.717Z,16.30
2022-10-04T23:04:44.226Z,18.10
2022-10-04T23:07:12.800Z,15.40
2022-10-04T23:09:42.024Z,17.30
2022-10-04T23:12:09.898Z,16.30
2022-10-04T23:14:39.256Z,15.00
2022-10-04T23:17:19.798Z,12.80
2022-10-04T23:19:47.852Z,18.30
2022-10-04T23:22:18.649Z,15.30
2022-10-04T23:24:46.650Z,13.90
2022-10-04T23:27:17.413Z,17.70
2022-10-04T23:29:46.798Z,14.50
2022-10-04T23:32:17.421Z,14.80
2022-10-04T23:34:55.711Z,14.00
2022-10-04T23:37:31.012Z,15.10
2022-10-04T23:39:59.452Z,15.90
2022-10-04T23:42:32.571Z,16.00
2022-10-04T23:45:02.166Z,15.40
2022-10-04T23:47:34.774Z,13.30
2022-10-04T23:50:17.711Z,13.00
2022-10-04T23:52:45.925Z,13.00
2022-10-04T23:55:19.926Z,18.60
2022-10-04T23:57:48.451Z,15.00
